Edneyville, NC (28727)

9:55 PM EST on December 05, 2016 (GMT -0500)
Pace Farm | | Change Station

Elev 2228 ft 35.37 °N, 82.36 °W | Updated 13 seconds ago

Light Rain
Light Rain
47.5 °F
Feels Like 48 °F
N
0.1
Wind Variable Wind from ESE
Gusts 1.2 mph

Today
High -- | Low -- °F
--% Chance of Precip.
Yesterday
High -- | Low -- °F
Precip. -- in
Pressure 30.01 in
Visibility 8.0 miles
Clouds Overcast 900 ft
Windchill 48 °F
Dew Point 46 °F
Humidity 95%
Rainfall 0.22 in
Snow Depth Not available.
7:23 AM 5:16 PM
Waxing Crescent, 37% visible
METAR KAVL 060154Z 17008KT 8SM -RA OVC009 09/08 A3002 RMK AO2 SLP160 P0003 T00940078
Pressure 30.01 in
Visibility 8.0 miles
Clouds Overcast 900 ft
Windchill 48 °F
Dew Point 46 °F
Humidity 95%
Rainfall 0.22 in
Snow Depth Not available.
7:23 AM 5:16 PM
Waxing Crescent, 37% visible
METAR KAVL 060154Z 17008KT 8SM -RA OVC009 09/08 A3002 RMK AO2 SLP160 P0003 T00940078

10-Day Weather Forecast

Almanac

Astronomy

Dec. 05, 2016 Rise Set
Actual Time
Civil Twilight
Nautical Twilight
Astronomical Twilight
Moon
Length of Visible Light
Length of Day
Tomorrow will be .
, % of the Moon is Illuminated

Today's Extremes

State Highs State Lows

Community

WunderPhotos

Upload Photos

1,955,908 photos uploaded!

WunderBlog® & News

Nearby

Air Quality

  Air Quality AQ Index Pollutant
Not available.

Snow Depth

Station Depth Elevation

Earthquake Activity

City Distance Mag. Time & Date
Minimum magnitude displayed is 2.5.

Coastal Water Temperatures

Place Temperature

Stations

Nearby Weather Stations

Station Location Temp. Windchill Dew Point Humidity Wind Precip. Elev Updated Type
                   

Watches & Warnings

There are currently no watches in effect.